Bellevue, NE

12:00 PM CDT on October 02, 2014 (GMT -0500)
Council Bluffs Municipal | Change Station
CLOSE
Current Station
Airport
Location: Council Bluffs,
Elevation: 1253 ft
Nearby Weather Stations

Elev 1253 ft 41.26 °N, 95.76 °W | Updated 5 minutes ago

Mostly Cloudy
Mostly Cloudy
55 °F
Feels Like 55 °F
N
13
Wind Variable Wind from North

Today
High -- | Low -- °F
--% Chance of Precip.
Yesterday
High -- | Low -- °F
Precip. -- in
7:21 AM 7:03 PM
First Quarter, 60% visible
Pressure 29.77 in
Visibility 1.5 miles
Clouds Mostly Cloudy 700 ft
Mostly Cloudy 1300 ft
Mostly Cloudy 1900 ft
Dew Point 55 °F
Humidity 100%
Rainfall 0.11 in
Snow Depth Not available.
UV 3 out of 12
Pollen .50 out of 12
Ozone Good
PM2.5 Moderate
Flu Activity Not available.
METAR KCBF 021655Z AUTO 35011KT 1 1/2SM RA BKN007 BKN013 BKN019 13/13 A2977 RMK AO2 P0011

More Conditions Fewer Conditions

Pressure 29.77 in
Visibility 1.5 miles
Clouds Mostly Cloudy 700 ft
Mostly Cloudy 1300 ft
Mostly Cloudy 1900 ft
Dew Point 55 °F
Humidity 100%
Rainfall 0.11 in
Snow Depth Not available.
UV 3 out of 12
Pollen .50 out of 12
Ozone Good
PM2.5 Moderate
Flu Activity Not available.
METAR KCBF 021655Z AUTO 35011KT 1 1/2SM RA BKN007 BKN013 BKN019 13/13 A2977 RMK AO2 P0011

More Conditions Fewer Conditions

10-Day Weather Forecast

Almanac

Astronomy

Oct. 02, 2014 Rise Set
Actual Time 7:21 AM CDT 7:03 PM CDT
Civil Twilight 6:53 AM CDT 7:31 PM CDT
Nautical Twilight 6:21 AM CDT 8:03 PM CDT
Astronomical Twilight 5:49 AM CDT 8:35 PM CDT
Moon 3:13 PM CDT 12:36 AM CDT
Length of Visible Light 12h 37m
Length of Day
11h 42m
Tomorrow will be 2m 42s shorter.
First Quarter, 60% of the Moon is Illuminated
Today
First Quarter
Oct 8
Full
Oct 15
Last Quarter
Oct 23
New
Oct 30
First Quarter

Today's Extremes

State Highs State Lows

Community

WunderPhotos

Upload Photos

1,758,298 photos uploaded!

WunderBlogs® & News

Nearby

Air Quality

  Air Quality AQ Index Pollutant
Yesterday Good
PM2.5
Yesterday Good
OZONE
Current Moderate
PM2.5
Current Good
OZONE
Thursday Moderate
PM2.5
Thursday Good
OZONE
Thursday Good
CO
Friday Moderate
PM2.5
Friday Good
OZONE
Friday Good
CO

Snow Depth

Station Depth Elevation
No new snow has been reported.

Earthquake Activity

City Distance Mag. Time & Date
No recent earthquake activity has been reported nearby.
Minimum magnitude displayed is 2.5.

Coastal Water Temperatures

Place Temperature
No Stations Reporting

Nearby Weather Stations